sensor_id;sensor_type;location;lat;lon;timestamp;temperature;humidity
3942;DHT22;1985;48.592;8.850;2024-01-15T00:01:57;-0.20;99.90
3942;DHT22;1985;48.592;8.850;2024-01-15T00:04:22;-0.30;99.90
3942;DHT22;1985;48.592;8.850;2024-01-15T00:06:49;-0.30;99.90
3942;DHT22;1985;48.592;8.850;2024-01-15T00:09:15;-0.40;99.90
3942;DHT22;1985;48.592;8.850;2024-01-15T00:11:41;-0.40;99.90
3942;DHT22;1985;48.592;8.850;2024-01-15T00:14:08;-0.40;99.90
3942;DHT22;1985;48.592;8.850;2024-01-15T00:16:33;-0.40;99.90
3942;DHT22;1985;48.592;8.850;2024-01-15T00:18:59;-0.20;99.90
3942;DHT22;1985;48.592;8.850;2024-01-15T00:21:25;-0.10;99.90
3942;DHT22;1985;48.592;8.850;2024-01-15T00:23:51;0.00;99.90
3942;DHT22;1985;48.592;8.850;2024-01-15T00:26:17;0.10;99.90
3942;DHT22;1985;48.592;8.850;2024-01-15T00:28:42;0.10;99.90
3942;DHT22;1985;48.592;8.850;2024-01-15T00:31:08;0.10;99.90
3942;DHT22;1985;48.592;8.850;2024-01-15T00:33:34;-0.10;99.90
3942;DHT22;1985;48.592;8.850;2024-01-15T00:36:00;-0.20;99.90
3942;DHT22;1985;48.592;8.850;2024-01-15T00:38:26;-0.40;99.90
3942;DHT22;1985;48.592;8.850;2024-01-15T00:40:52;-0.30;99.90
3942;DHT22;1985;48.592;8.850;2024-01-15T00:43:17;-0.40;99.90
3942;DHT22;1985;48.592;8.850;2024-01-15T00:45:46;-0.60;99.90
3942;DHT22;1985;48.592;8.850;2024-01-15T00:48:12;-0.60;99.90
3942;DHT22;1985;48.592;8.850;2024-01-15T00:50:38;-0.50;99.90
3942;DHT22;1985;48.592;8.850;2024-01-15T00:53:03;-0.40;99.90
3942;DHT22;1985;48.592;8.850;2024-01-15T00:55:29;-0.40;99.90
3942;DHT22;1985;48.592;8.850;2024-01-15T00:57:55;-0.40;99.90
3942;DHT22;1985;48.592;8.850;2024-01-15T01:00:21;-0.30;99.90
3942;DHT22;1985;48.592;8.850;2024-01-15T01:02:46;-0.40;99.90
3942;DHT22;1985;48.592;8.850;2024-01-15T01:05:12;-0.40;99.90
3942;DHT22;1985;48.592;8.850;2024-01-15T01:07:38;-0.40;99.90
3942;DHT22;1985;48.592;8.850;2024-01-15T01:10:04;-0.50;99.90
3942;DHT22;1985;48.592;8.850;2024-01-15T01:12:30;-0.50;99.90
3942;DHT22;1985;48.592;8.850;2024-01-15T01:14:56;-0.50;99.90
3942;DHT22;1985;48.592;8.850;2024-01-15T01:17:22;-0.60;99.90
3942;DHT22;1985;48.592;8.850;2024-01-15T01:19:47;-0.60;99.90
3942;DHT22;1985;48.592;8.850;2024-01-15T01:22:13;-0.70;99.90
3942;DHT22;1985;48.592;8.850;2024-01-15T01:24:39;-0.70;99.90
3942;DHT22;1985;48.592;8.850;2024-01-15T01:27:04;-0.70;99.90
3942;DHT22;1985;48.592;8.850;2024-01-15T01:29:30;-0.80;99.90
3942;DHT22;1985;48.592;8.850;2024-01-15T01:31:56;-0.80;99.90
3942;DHT22;1985;48.592;8.850;2024-01-15T01:34:22;-0.80;99.90
3942;DHT22;1985;48.592;8.850;2024-01-15T01:36:47;-0.90;99.90
3942;DHT22;1985;48.592;8.850;2024-01-15T01:39:13;-0.90;99.90
3942;DHT22;1985;48.592;8.850;2024-01-15T01:41:39;-1.00;99.90
3942;DHT22;1985;48.592;8.850;2024-01-15T01:44:05;-1.00;99.90
3942;DHT22;1985;48.592;8.850;2024-01-15T01:46:31;-1.00;99.90
3942;DHT22;1985;48.592;8.850;2024-01-15T01:48:58;-1.10;99.90
3942;DHT22;1985;48.592;8.850;2024-01-15T01:51:26;-1.20;99.90
3942;DHT22;1985;48.592;8.850;2024-01-15T01:53:52;-1.20;99.90
3942;DHT22;1985;48.592;8.850;2024-01-15T01:56:18;-1.30;99.90
3942;DHT22;1985;48.592;8.850;2024-01-15T01:58:44;-1.40;99.90
3942;DHT22;1985;48.592;8.850;2024-01-15T02:01:14;-1.30;99.90
3942;DHT22;1985;48.592;8.850;2024-01-15T02:03:40;-1.30;99.90
3942;DHT22;1985;48.592;8.850;2024-01-15T02:06:06;-1.30;99.90
3942;DHT22;1985;48.592;8.850;2024-01-15T02:08:32;-1.30;99.90
3942;DHT22;1985;48.592;8.850;2024-01-15T02:10:58;-1.30;99.90
3942;DHT22;1985;48.592;8.850;2024-01-15T02:13:24;-1.30;99.90
3942;DHT22;1985;48.592;8.850;2024-01-15T02:15:49;-1.30;99.90
3942;DHT22;1985;48.592;8.850;2024-01-15T02:18:15;-1.40;99.90
3942;DHT22;1985;48.592;8.850;2024-01-15T02:20:41;-1.40;99.90
3942;DHT22;1985;48.592;8.850;2024-01-15T02:23:13;-1.40;99.90
3942;DHT22;1985;48.592;8.850;2024-01-15T02:25:46;-1.40;99.90
3942;DHT22;1985;48.592;8.850;2024-01-15T02:28:16;-1.50;99.90
3942;DHT22;1985;48.592;8.850;2024-01-15T02:30:43;-1.50;99.90
3942;DHT22;1985;48.592;8.850;2024-01-15T02:33:10;-1.50;99.90
3942;DHT22;1985;48.592;8.850;2024-01-15T02:35:36;-1.50;99.90
3942;DHT22;1985;48.592;8.850;2024-01-15T02:38:03;-1.50;99.90
3942;DHT22;1985;48.592;8.850;2024-01-15T02:40:31;-1.50;99.90
3942;DHT22;1985;48.592;8.850;2024-01-15T02:42:56;-1.50;99.90
3942;DHT22;1985;48.592;8.850;2024-01-15T02:45:22;-1.50;99.90
3942;DHT22;1985;48.592;8.850;2024-01-15T02:47:48;-1.50;99.90
3942;DHT22;1985;48.592;8.850;2024-01-15T02:50:14;-1.50;99.90
3942;DHT22;1985;48.592;8.850;2024-01-15T02:52:41;-1.50;99.90
3942;DHT22;1985;48.592;8.850;2024-01-15T02:55:07;-1.40;99.90
3942;DHT22;1985;48.592;8.850;2024-01-15T02:57:32;-1.40;99.90
3942;DHT22;1985;48.592;8.850;2024-01-15T02:59:58;-1.30;99.90
3942;DHT22;1985;48.592;8.850;2024-01-15T03:02:24;-1.20;99.90
3942;DHT22;1985;48.592;8.850;2024-01-15T03:04:49;-1.10;99.90
3942;DHT22;1985;48.592;8.850;2024-01-15T03:07:15;-1.10;99.90
3942;DHT22;1985;48.592;8.850;2024-01-15T03:09:41;-1.00;99.90
3942;DHT22;1985;48.592;8.850;2024-01-15T03:12:07;-0.90;99.90
3942;DHT22;1985;48.592;8.850;2024-01-15T03:14:32;-0.90;99.90
3942;DHT22;1985;48.592;8.850;2024-01-15T03:16:58;-0.80;99.90
3942;DHT22;1985;48.592;8.850;2024-01-15T03:19:24;-0.80;99.90
3942;DHT22;1985;48.592;8.850;2024-01-15T03:21:49;-0.80;99.90
3942;DHT22;1985;48.592;8.850;2024-01-15T03:24:15;-0.70;99.90
3942;DHT22;1985;48.592;8.850;2024-01-15T03:26:40;-0.70;99.90
3942;DHT22;1985;48.592;8.850;2024-01-15T03:29:07;-0.50;99.90
3942;DHT22;1985;48.592;8.850;2024-01-15T03:31:33;-0.50;99.90
3942;DHT22;1985;48.592;8.850;2024-01-15T03:33:59;-0.40;99.90
3942;DHT22;1985;48.592;8.850;2024-01-15T03:36:24;-0.50;99.90
3942;DHT22;1985;48.592;8.850;2024-01-15T03:38:50;-0.30;99.90
3942;DHT22;1985;48.592;8.850;2024-01-15T03:41:16;-0.20;99.90
3942;DHT22;1985;48.592;8.850;2024-01-15T03:43:41;-0.20;99.90
3942;DHT22;1985;48.592;8.850;2024-01-15T03:46:07;-0.20;99.90
3942;DHT22;1985;48.592;8.850;2024-01-15T03:48:33;-0.10;99.90
3942;DHT22;1985;48.592;8.850;2024-01-15T03:50:58;-0.10;99.90
3942;DHT22;1985;48.592;8.850;2024-01-15T03:53:24;-0.20;99.90
3942;DHT22;1985;48.592;8.850;2024-01-15T03:55:50;-0.30;99.90
3942;DHT22;1985;48.592;8.850;2024-01-15T03:58:15;-0.40;99.90
3942;DHT22;1985;48.592;8.850;2024-01-15T04:00:42;-0.30;99.90
3942;DHT22;1985;48.592;8.850;2024-01-15T04:03:08;-0.30;99.90
3942;DHT22;1985;48.592;8.850;2024-01-15T04:05:34;-0.30;99.90
3942;DHT22;1985;48.592;8.850;2024-01-15T04:08:00;-0.30;99.90
3942;DHT22;1985;48.592;8.850;2024-01-15T04:10:25;-0.30;99.90
3942;DHT22;1985;48.592;8.850;2024-01-15T04:12:51;-0.40;99.90
3942;DHT22;1985;48.592;8.850;2024-01-15T04:15:17;-0.40;99.90
3942;DHT22;1985;48.592;8.850;2024-01-15T04:17:42;-0.40;99.90
3942;DHT22;1985;48.592;8.850;2024-01-15T04:20:09;-0.50;99.90
3942;DHT22;1985;48.592;8.850;2024-01-15T04:22:35;-0.40;99.90
3942;DHT22;1985;48.592;8.850;2024-01-15T04:25:01;-0.40;99.90
3942;DHT22;1985;48.592;8.850;2024-01-15T04:27:27;-0.40;99.90
3942;DHT22;1985;48.592;8.850;2024-01-15T04:29:53;-0.30;99.90
3942;DHT22;1985;48.592;8.850;2024-01-15T04:32:18;-0.30;99.90
3942;DHT22;1985;48.592;8.850;2024-01-15T04:34:44;-0.30;99.90
3942;DHT22;1985;48.592;8.850;2024-01-15T04:37:10;-0.30;99.90
3942;DHT22;1985;48.592;8.850;2024-01-15T04:39:36;-0.30;99.90
3942;DHT22;1985;48.592;8.850;2024-01-15T04:42:01;-0.30;99.90
3942;DHT22;1985;48.592;8.850;2024-01-15T04:44:27;-0.20;99.90
3942;DHT22;1985;48.592;8.850;2024-01-15T04:46:53;-0.20;99.90
3942;DHT22;1985;48.592;8.850;2024-01-15T04:49:21;-0.20;99.90
3942;DHT22;1985;48.592;8.850;2024-01-15T04:51:46;-0.10;99.90
3942;DHT22;1985;48.592;8.850;2024-01-15T04:54:12;-0.20;99.90
3942;DHT22;1985;48.592;8.850;2024-01-15T04:56:38;-0.20;99.90
3942;DHT22;1985;48.592;8.850;2024-01-15T04:59:03;-0.30;99.90
3942;DHT22;1985;48.592;8.850;2024-01-15T05:01:33;-0.40;99.90
3942;DHT22;1985;48.592;8.850;2024-01-15T05:03:58;-0.50;99.90
3942;DHT22;1985;48.592;8.850;2024-01-15T05:06:24;-0.40;99.90
3942;DHT22;1985;48.592;8.850;2024-01-15T05:08:50;-0.50;99.90
3942;DHT22;1985;48.592;8.850;2024-01-15T05:11:16;-0.50;99.90
3942;DHT22;1985;48.592;8.850;2024-01-15T05:13:41;-0.50;99.90
3942;DHT22;1985;48.592;8.850;2024-01-15T05:16:07;-0.50;99.90
3942;DHT22;1985;48.592;8.850;2024-01-15T05:18:33;-0.50;99.90
3942;DHT22;1985;48.592;8.850;2024-01-15T05:20:59;-0.50;99.90
3942;DHT22;1985;48.592;8.850;2024-01-15T05:23:24;-0.40;99.90
3942;DHT22;1985;48.592;8.850;2024-01-15T05:25:50;-0.40;99.90
3942;DHT22;1985;48.592;8.850;2024-01-15T05:28:16;-0.40;99.90
3942;DHT22;1985;48.592;8.850;2024-01-15T05:30:41;-0.30;99.90
3942;DHT22;1985;48.592;8.850;2024-01-15T05:33:07;-0.40;99.90
3942;DHT22;1985;48.592;8.850;2024-01-15T05:35:33;-0.50;99.90
3942;DHT22;1985;48.592;8.850;2024-01-15T05:37:59;-0.50;99.90
3942;DHT22;1985;48.592;8.850;2024-01-15T05:40:24;-0.40;99.90
3942;DHT22;1985;48.592;8.850;2024-01-15T05:42:50;-0.50;99.90
3942;DHT22;1985;48.592;8.850;2024-01-15T05:45:16;-0.50;99.90
3942;DHT22;1985;48.592;8.850;2024-01-15T05:47:42;-0.60;99.90
3942;DHT22;1985;48.592;8.850;2024-01-15T05:50:08;-0.50;99.90
3942;DHT22;1985;48.592;8.850;2024-01-15T05:52:34;-0.40;99.90
3942;DHT22;1985;48.592;8.850;2024-01-15T05:54:59;-0.50;99.90
3942;DHT22;1985;48.592;8.850;2024-01-15T05:57:25;-0.50;99.90
3942;DHT22;1985;48.592;8.850;2024-01-15T05:59:51;-0.50;99.90
3942;DHT22;1985;48.592;8.850;2024-01-15T06:02:17;-0.60;99.90
3942;DHT22;1985;48.592;8.850;2024-01-15T06:04:42;-0.50;99.90
3942;DHT22;1985;48.592;8.850;2024-01-15T06:07:08;-0.40;99.90
3942;DHT22;1985;48.592;8.850;2024-01-15T06:09:33;-0.40;99.90
3942;DHT22;1985;48.592;8.850;2024-01-15T06:11:59;-0.40;99.90
3942;DHT22;1985;48.592;8.850;2024-01-15T06:14:25;-0.40;99.90
3942;DHT22;1985;48.592;8.850;2024-01-15T06:16:51;-0.30;99.90
3942;DHT22;1985;48.592;8.850;2024-01-15T06:19:17;-0.30;99.90
3942;DHT22;1985;48.592;8.850;2024-01-15T06:21:43;-0.30;99.90
3942;DHT22;1985;48.592;8.850;2024-01-15T06:24:08;-0.30;99.90
3942;DHT22;1985;48.592;8.850;2024-01-15T06:26:35;-0.30;99.90
3942;DHT22;1985;48.592;8.850;2024-01-15T06:29:01;-0.10;99.90
3942;DHT22;1985;48.592;8.850;2024-01-15T06:31:28;-0.10;99.90
3942;DHT22;1985;48.592;8.850;2024-01-15T06:33:55;0.00;99.90
3942;DHT22;1985;48.592;8.850;2024-01-15T06:36:20;0.00;99.90
3942;DHT22;1985;48.592;8.850;2024-01-15T06:38:46;-0.10;99.90
3942;DHT22;1985;48.592;8.850;2024-01-15T06:41:12;-0.10;99.90
3942;DHT22;1985;48.592;8.850;2024-01-15T06:43:37;-0.20;99.90
3942;DHT22;1985;48.592;8.850;2024-01-15T06:46:03;-0.20;99.90
3942;DHT22;1985;48.592;8.850;2024-01-15T06:48:29;-0.10;99.90
3942;DHT22;1985;48.592;8.850;2024-01-15T06:50:54;-0.20;99.90
3942;DHT22;1985;48.592;8.850;2024-01-15T06:53:20;-0.20;99.90
3942;DHT22;1985;48.592;8.850;2024-01-15T06:55:46;-0.20;99.90
3942;DHT22;1985;48.592;8.850;2024-01-15T06:58:12;-0.20;99.90
3942;DHT22;1985;48.592;8.850;2024-01-15T07:00:37;-0.30;99.90
3942;DHT22;1985;48.592;8.850;2024-01-15T07:03:03;-0.50;99.90
3942;DHT22;1985;48.592;8.850;2024-01-15T07:05:29;-0.60;99.90
3942;DHT22;1985;48.592;8.850;2024-01-15T07:07:56;-0.60;99.90
3942;DHT22;1985;48.592;8.850;2024-01-15T07:10:21;-0.50;99.90
3942;DHT22;1985;48.592;8.850;2024-01-15T07:12:47;-0.60;99.90
3942;DHT22;1985;48.592;8.850;2024-01-15T07:15:13;-0.70;99.90
3942;DHT22;1985;48.592;8.850;2024-01-15T07:17:40;-0.60;99.90
3942;DHT22;1985;48.592;8.850;2024-01-15T07:20:09;-0.60;99.90
3942;DHT22;1985;48.592;8.850;2024-01-15T07:22:38;-0.60;99.90
3942;DHT22;1985;48.592;8.850;2024-01-15T07:25:04;-0.60;99.90
3942;DHT22;1985;48.592;8.850;2024-01-15T07:27:33;-0.60;99.90
3942;DHT22;1985;48.592;8.850;2024-01-15T07:29:58;-0.50;99.90
3942;DHT22;1985;48.592;8.850;2024-01-15T07:32:24;-0.50;99.90
3942;DHT22;1985;48.592;8.850;2024-01-15T07:34:50;-0.50;99.90
3942;DHT22;1985;48.592;8.850;2024-01-15T07:37:15;-0.50;99.90
3942;DHT22;1985;48.592;8.850;2024-01-15T07:39:41;-0.40;99.90
3942;DHT22;1985;48.592;8.850;2024-01-15T07:42:07;-0.30;99.90
3942;DHT22;1985;48.592;8.850;2024-01-15T07:44:33;-0.30;99.90
3942;DHT22;1985;48.592;8.850;2024-01-15T07:46:59;-0.20;99.90
3942;DHT22;1985;48.592;8.850;2024-01-15T07:49:25;-0.10;99.90
3942;DHT22;1985;48.592;8.850;2024-01-15T07:51:50;-0.10;99.90
3942;DHT22;1985;48.592;8.850;2024-01-15T07:54:16;-0.20;99.90
3942;DHT22;1985;48.592;8.850;2024-01-15T07:59:20;-0.10;99.90
3942;DHT22;1985;48.592;8.850;2024-01-15T08:01:46;-0.10;99.90
3942;DHT22;1985;48.592;8.850;2024-01-15T08:04:13;-0.10;99.90
3942;DHT22;1985;48.592;8.850;2024-01-15T08:06:38;-0.20;99.90
3942;DHT22;1985;48.592;8.850;2024-01-15T08:09:04;-0.10;99.90
3942;DHT22;1985;48.592;8.850;2024-01-15T08:11:30;-0.20;99.90
3942;DHT22;1985;48.592;8.850;2024-01-15T08:13:56;-0.20;99.90
3942;DHT22;1985;48.592;8.850;2024-01-15T08:16:22;-0.20;99.90
3942;DHT22;1985;48.592;8.850;2024-01-15T08:18:49;-0.20;99.90
3942;DHT22;1985;48.592;8.850;2024-01-15T08:21:15;-0.20;99.90
3942;DHT22;1985;48.592;8.850;2024-01-15T08:23:41;-0.10;99.90
3942;DHT22;1985;48.592;8.850;2024-01-15T08:26:07;-0.10;99.90
3942;DHT22;1985;48.592;8.850;2024-01-15T08:28:34;-0.10;99.90
3942;DHT22;1985;48.592;8.850;2024-01-15T08:31:00;0.00;99.90
3942;DHT22;1985;48.592;8.850;2024-01-15T08:33:25;0.00;99.90
3942;DHT22;1985;48.592;8.850;2024-01-15T08:35:51;0.00;99.90
3942;DHT22;1985;48.592;8.850;2024-01-15T08:38:16;0.00;99.90
3942;DHT22;1985;48.592;8.850;2024-01-15T08:40:42;0.10;99.90
3942;DHT22;1985;48.592;8.850;2024-01-15T08:43:08;0.10;99.90
3942;DHT22;1985;48.592;8.850;2024-01-15T08:45:33;0.10;99.90
3942;DHT22;1985;48.592;8.850;2024-01-15T08:47:59;0.20;99.90
3942;DHT22;1985;48.592;8.850;2024-01-15T08:50:25;0.20;99.90
3942;DHT22;1985;48.592;8.850;2024-01-15T08:52:50;0.30;99.90
3942;DHT22;1985;48.592;8.850;2024-01-15T08:55:16;0.30;99.90
3942;DHT22;1985;48.592;8.850;2024-01-15T08:57:42;0.30;99.90
3942;DHT22;1985;48.592;8.850;2024-01-15T09:00:09;0.40;99.90
3942;DHT22;1985;48.592;8.850;2024-01-15T09:02:34;0.30;99.90
3942;DHT22;1985;48.592;8.850;2024-01-15T09:05:01;0.30;99.90
3942;DHT22;1985;48.592;8.850;2024-01-15T09:07:27;0.30;99.90
3942;DHT22;1985;48.592;8.850;2024-01-15T09:09:53;0.40;99.90
3942;DHT22;1985;48.592;8.850;2024-01-15T09:12:19;0.50;99.90
3942;DHT22;1985;48.592;8.850;2024-01-15T09:14:46;0.50;99.90
3942;DHT22;1985;48.592;8.850;2024-01-15T09:17:13;0.40;99.90
3942;DHT22;1985;48.592;8.850;2024-01-15T09:19:38;0.40;99.90
3942;DHT22;1985;48.592;8.850;2024-01-15T09:22:07;0.50;99.90
3942;DHT22;1985;48.592;8.850;2024-01-15T09:24:33;0.50;99.90
3942;DHT22;1985;48.592;8.850;2024-01-15T09:26:58;0.60;99.90
3942;DHT22;1985;48.592;8.850;2024-01-15T09:29:25;0.60;99.90
3942;DHT22;1985;48.592;8.850;2024-01-15T09:31:51;0.60;99.90
3942;DHT22;1985;48.592;8.850;2024-01-15T09:34:17;0.70;99.90
3942;DHT22;1985;48.592;8.850;2024-01-15T09:36:43;0.70;99.90
3942;DHT22;1985;48.592;8.850;2024-01-15T09:39:09;0.70;99.90
3942;DHT22;1985;48.592;8.850;2024-01-15T09:41:37;0.70;99.90
3942;DHT22;1985;48.592;8.850;2024-01-15T09:44:06;0.60;99.90
3942;DHT22;1985;48.592;8.850;2024-01-15T09:46:35;0.60;99.90
3942;DHT22;1985;48.592;8.850;2024-01-15T09:49:01;0.60;99.90
3942;DHT22;1985;48.592;8.850;2024-01-15T09:51:31;0.60;99.90
3942;DHT22;1985;48.592;8.850;2024-01-15T09:53:57;0.70;99.90
3942;DHT22;1985;48.592;8.850;2024-01-15T09:56:24;0.70;99.90
3942;DHT22;1985;48.592;8.850;2024-01-15T09:58:50;0.80;99.90
3942;DHT22;1985;48.592;8.850;2024-01-15T10:01:20;0.70;99.90
3942;DHT22;1985;48.592;8.850;2024-01-15T10:03:46;0.80;99.90
3942;DHT22;1985;48.592;8.850;2024-01-15T10:06:15;0.80;99.90
3942;DHT22;1985;48.592;8.850;2024-01-15T10:08:46;0.80;99.90
3942;DHT22;1985;48.592;8.850;2024-01-15T10:11:13;0.80;99.90
3942;DHT22;1985;48.592;8.850;2024-01-15T10:13:39;0.80;99.90
3942;DHT22;1985;48.592;8.850;2024-01-15T10:16:06;0.70;99.90
3942;DHT22;1985;48.592;8.850;2024-01-15T10:18:32;0.90;99.90
3942;DHT22;1985;48.592;8.850;2024-01-15T10:20:58;0.90;99.90
3942;DHT22;1985;48.592;8.850;2024-01-15T10:23:24;0.90;99.90
3942;DHT22;1985;48.592;8.850;2024-01-15T10:25:50;1.00;99.90
3942;DHT22;1985;48.592;8.850;2024-01-15T10:28:18;1.10;99.90
3942;DHT22;1985;48.592;8.850;2024-01-15T10:30:44;1.20;99.90
3942;DHT22;1985;48.592;8.850;2024-01-15T10:33:10;1.10;99.90
3942;DHT22;1985;48.592;8.850;2024-01-15T10:35:38;1.10;99.90
3942;DHT22;1985;48.592;8.850;2024-01-15T10:38:05;1.00;99.90
3942;DHT22;1985;48.592;8.850;2024-01-15T10:40:31;0.90;99.90
3942;DHT22;1985;48.592;8.850;2024-01-15T10:42:57;0.90;99.90
3942;DHT22;1985;48.592;8.850;2024-01-15T10:45:23;0.80;99.90
3942;DHT22;1985;48.592;8.850;2024-01-15T10:47:49;0.80;99.90
3942;DHT22;1985;48.592;8.850;2024-01-15T10:50:15;0.80;99.90
3942;DHT22;1985;48.592;8.850;2024-01-15T10:52:42;0.90;99.90
3942;DHT22;1985;48.592;8.850;2024-01-15T10:55:11;1.00;99.90
3942;DHT22;1985;48.592;8.850;2024-01-15T10:57:37;1.00;99.90
3942;DHT22;1985;48.592;8.850;2024-01-15T11:00:04;0.80;99.90
3942;DHT22;1985;48.592;8.850;2024-01-15T11:02:35;0.80;99.90
3942;DHT22;1985;48.592;8.850;2024-01-15T11:05:01;0.80;99.90
3942;DHT22;1985;48.592;8.850;2024-01-15T11:07:27;0.90;99.90
3942;DHT22;1985;48.592;8.850;2024-01-15T11:09:55;0.80;99.90
3942;DHT22;1985;48.592;8.850;2024-01-15T11:12:21;0.70;99.90
3942;DHT22;1985;48.592;8.850;2024-01-15T11:14:48;0.80;99.90
3942;DHT22;1985;48.592;8.850;2024-01-15T11:17:14;0.80;99.90
3942;DHT22;1985;48.592;8.850;2024-01-15T11:19:47;0.70;99.90
3942;DHT22;1985;48.592;8.850;2024-01-15T11:25:01;0.80;99.90
3942;DHT22;1985;48.592;8.850;2024-01-15T11:28:03;0.70;99.90
3942;DHT22;1985;48.592;8.850;2024-01-15T11:30:29;0.70;99.90
3942;DHT22;1985;48.592;8.850;2024-01-15T11:32:55;0.70;99.90
3942;DHT22;1985;48.592;8.850;2024-01-15T11:35:20;0.80;99.90
3942;DHT22;1985;48.592;8.850;2024-01-15T11:42:48;0.70;99.90
3942;DHT22;1985;48.592;8.850;2024-01-15T11:45:19;0.70;99.90
3942;DHT22;1985;48.592;8.850;2024-01-15T11:50:10;0.70;99.90
3942;DHT22;1985;48.592;8.850;2024-01-15T11:52:38;0.60;99.90
3942;DHT22;1985;48.592;8.850;2024-01-15T12:00:06;0.50;99.90
3942;DHT22;1985;48.592;8.850;2024-01-15T12:02:32;0.50;99.90
3942;DHT22;1985;48.592;8.850;2024-01-15T12:04:58;0.60;99.90
3942;DHT22;1985;48.592;8.850;2024-01-15T12:07:23;0.50;99.90
3942;DHT22;1985;48.592;8.850;2024-01-15T12:09:49;0.50;99.90
3942;DHT22;1985;48.592;8.850;2024-01-15T12:12:24;0.60;99.90
3942;DHT22;1985;48.592;8.850;2024-01-15T12:14:50;0.50;99.90
3942;DHT22;1985;48.592;8.850;2024-01-15T12:17:16;0.50;99.90
3942;DHT22;1985;48.592;8.850;2024-01-15T12:19:43;0.50;99.90
3942;DHT22;1985;48.592;8.850;2024-01-15T12:22:09;0.50;99.90
3942;DHT22;1985;48.592;8.850;2024-01-15T12:24:35;0.50;99.90
3942;DHT22;1985;48.592;8.850;2024-01-15T12:27:01;0.40;99.90
3942;DHT22;1985;48.592;8.850;2024-01-15T12:29:27;0.40;99.90
3942;DHT22;1985;48.592;8.850;2024-01-15T12:31:53;0.40;99.90
3942;DHT22;1985;48.592;8.850;2024-01-15T12:34:19;0.40;99.90
3942;DHT22;1985;48.592;8.850;2024-01-15T12:36:48;0.50;99.90
3942;DHT22;1985;48.592;8.850;2024-01-15T12:39:15;0.60;99.90
3942;DHT22;1985;48.592;8.850;2024-01-15T12:41:41;0.60;99.90
3942;DHT22;1985;48.592;8.850;2024-01-15T12:44:07;0.60;99.90
3942;DHT22;1985;48.592;8.850;2024-01-15T12:46:32;0.60;99.90
3942;DHT22;1985;48.592;8.850;2024-01-15T12:48:58;0.60;99.90
3942;DHT22;1985;48.592;8.850;2024-01-15T12:51:27;0.50;99.90
3942;DHT22;1985;48.592;8.850;2024-01-15T12:53:53;0.40;99.90
3942;DHT22;1985;48.592;8.850;2024-01-15T12:56:19;0.40;99.90
3942;DHT22;1985;48.592;8.850;2024-01-15T12:58:44;0.50;99.90
3942;DHT22;1985;48.592;8.850;2024-01-15T13:01:10;0.40;99.90
3942;DHT22;1985;48.592;8.850;2024-01-15T13:03:36;0.50;99.90
3942;DHT22;1985;48.592;8.850;2024-01-15T13:06:01;0.50;99.90
3942;DHT22;1985;48.592;8.850;2024-01-15T13:08:27;0.60;99.90
3942;DHT22;1985;48.592;8.850;2024-01-15T13:10:55;0.50;99.90
3942;DHT22;1985;48.592;8.850;2024-01-15T13:13:23;0.50;99.90
3942;DHT22;1985;48.592;8.850;2024-01-15T13:15:48;0.60;99.90
3942;DHT22;1985;48.592;8.850;2024-01-15T13:18:14;0.60;99.90
3942;DHT22;1985;48.592;8.850;2024-01-15T13:20:40;0.70;99.90
3942;DHT22;1985;48.592;8.850;2024-01-15T13:23:05;0.70;99.90
3942;DHT22;1985;48.592;8.850;2024-01-15T13:25:31;0.80;99.90
3942;DHT22;1985;48.592;8.850;2024-01-15T13:27:57;0.90;99.90
3942;DHT22;1985;48.592;8.850;2024-01-15T13:30:23;0.90;99.90
3942;DHT22;1985;48.592;8.850;2024-01-15T13:32:49;1.00;99.90
3942;DHT22;1985;48.592;8.850;2024-01-15T13:35:14;0.80;99.90
3942;DHT22;1985;48.592;8.850;2024-01-15T13:37:40;0.70;99.90
3942;DHT22;1985;48.592;8.850;2024-01-15T13:40:09;0.70;99.90
3942;DHT22;1985;48.592;8.850;2024-01-15T13:42:41;0.90;99.90
3942;DHT22;1985;48.592;8.850;2024-01-15T13:45:07;1.00;99.90
3942;DHT22;1985;48.592;8.850;2024-01-15T13:47:33;1.10;99.90
3942;DHT22;1985;48.592;8.850;2024-01-15T13:49:59;1.10;99.90
3942;DHT22;1985;48.592;8.850;2024-01-15T13:52:25;1.10;99.90
3942;DHT22;1985;48.592;8.850;2024-01-15T13:54:53;1.10;99.90
3942;DHT22;1985;48.592;8.850;2024-01-15T13:57:18;1.00;99.90
3942;DHT22;1985;48.592;8.850;2024-01-15T13:59:44;1.10;99.90
3942;DHT22;1985;48.592;8.850;2024-01-15T14:02:10;1.10;99.90
3942;DHT22;1985;48.592;8.850;2024-01-15T14:04:37;1.20;99.90
3942;DHT22;1985;48.592;8.850;2024-01-15T14:07:03;1.10;99.90
3942;DHT22;1985;48.592;8.850;2024-01-15T14:09:29;1.10;99.90
3942;DHT22;1985;48.592;8.850;2024-01-15T14:11:57;1.20;99.90
3942;DHT22;1985;48.592;8.850;2024-01-15T14:14:22;1.20;99.90
3942;DHT22;1985;48.592;8.850;2024-01-15T14:16:49;1.10;99.90
3942;DHT22;1985;48.592;8.850;2024-01-15T14:19:15;1.00;99.90
3942;DHT22;1985;48.592;8.850;2024-01-15T14:21:41;1.00;99.90
3942;DHT22;1985;48.592;8.850;2024-01-15T14:24:06;0.90;99.90
3942;DHT22;1985;48.592;8.850;2024-01-15T14:26:32;0.90;99.90
3942;DHT22;1985;48.592;8.850;2024-01-15T14:28:58;1.00;99.90
3942;DHT22;1985;48.592;8.850;2024-01-15T14:31:24;0.90;99.90
3942;DHT22;1985;48.592;8.850;2024-01-15T14:33:52;0.90;99.90
3942;DHT22;1985;48.592;8.850;2024-01-15T14:36:18;0.90;99.90
3942;DHT22;1985;48.592;8.850;2024-01-15T14:38:43;1.10;99.90
3942;DHT22;1985;48.592;8.850;2024-01-15T14:41:09;1.20;99.90
3942;DHT22;1985;48.592;8.850;2024-01-15T14:43:35;1.30;99.90
3942;DHT22;1985;48.592;8.850;2024-01-15T14:46:01;1.30;99.90
3942;DHT22;1985;48.592;8.850;2024-01-15T14:48:26;1.00;99.90
3942;DHT22;1985;48.592;8.850;2024-01-15T14:50:52;0.90;99.90
3942;DHT22;1985;48.592;8.850;2024-01-15T14:53:18;0.70;99.90
3942;DHT22;1985;48.592;8.850;2024-01-15T14:55:43;0.70;99.90
3942;DHT22;1985;48.592;8.850;2024-01-15T14:58:09;0.90;99.90
3942;DHT22;1985;48.592;8.850;2024-01-15T15:00:35;0.90;99.90
3942;DHT22;1985;48.592;8.850;2024-01-15T15:03:00;1.00;99.90
3942;DHT22;1985;48.592;8.850;2024-01-15T15:05:26;0.90;99.90
3942;DHT22;1985;48.592;8.850;2024-01-15T15:07:52;0.80;99.90
3942;DHT22;1985;48.592;8.850;2024-01-15T15:10:17;0.90;99.90
3942;DHT22;1985;48.592;8.850;2024-01-15T15:12:43;0.90;99.90
3942;DHT22;1985;48.592;8.850;2024-01-15T15:15:09;1.00;99.90
3942;DHT22;1985;48.592;8.850;2024-01-15T15:17:37;0.90;99.90
3942;DHT22;1985;48.592;8.850;2024-01-15T15:20:05;1.00;99.90
3942;DHT22;1985;48.592;8.850;2024-01-15T15:22:30;0.90;99.90
3942;DHT22;1985;48.592;8.850;2024-01-15T15:24:56;0.90;99.90
3942;DHT22;1985;48.592;8.850;2024-01-15T15:27:22;0.90;99.90
3942;DHT22;1985;48.592;8.850;2024-01-15T15:29:48;0.70;99.90
3942;DHT22;1985;48.592;8.850;2024-01-15T15:32:15;0.60;99.90
3942;DHT22;1985;48.592;8.850;2024-01-15T15:34:41;0.60;99.90
3942;DHT22;1985;48.592;8.850;2024-01-15T15:37:07;0.60;99.90
3942;DHT22;1985;48.592;8.850;2024-01-15T15:39:33;0.70;99.90
3942;DHT22;1985;48.592;8.850;2024-01-15T15:41:58;0.60;99.90
3942;DHT22;1985;48.592;8.850;2024-01-15T15:44:24;0.60;99.90
3942;DHT22;1985;48.592;8.850;2024-01-15T15:46:50;0.40;99.90
3942;DHT22;1985;48.592;8.850;2024-01-15T15:49:15;0.10;99.90
3942;DHT22;1985;48.592;8.850;2024-01-15T15:51:41;0.20;99.90
3942;DHT22;1985;48.592;8.850;2024-01-15T15:54:07;0.10;99.90
3942;DHT22;1985;48.592;8.850;2024-01-15T15:56:34;0.10;99.90
3942;DHT22;1985;48.592;8.850;2024-01-15T15:59:04;0.10;99.90
3942;DHT22;1985;48.592;8.850;2024-01-15T16:01:31;0.00;99.90
3942;DHT22;1985;48.592;8.850;2024-01-15T16:03:58;0.10;99.90
3942;DHT22;1985;48.592;8.850;2024-01-15T16:06:24;0.20;99.90
3942;DHT22;1985;48.592;8.850;2024-01-15T16:08:50;0.20;99.90
3942;DHT22;1985;48.592;8.850;2024-01-15T16:11:16;0.10;99.90
3942;DHT22;1985;48.592;8.850;2024-01-15T16:13:43;0.00;99.90
3942;DHT22;1985;48.592;8.850;2024-01-15T16:16:09;0.00;99.90
3942;DHT22;1985;48.592;8.850;2024-01-15T16:18:34;0.00;99.90
3942;DHT22;1985;48.592;8.850;2024-01-15T16:21:01;-0.10;99.90